sensor_id;sensor_type;location;lat;lon;timestamp;P1;durP1;ratioP1;P2;durP2;ratioP2
21601;SDS011;10963;50.934;4.668;2023-10-31T00:00:30;28.03;;;12.13;;
21601;SDS011;10963;50.934;4.668;2023-10-31T00:02:56;25.37;;;12.27;;
21601;SDS011;10963;50.934;4.668;2023-10-31T00:05:21;26.67;;;13.07;;
21601;SDS011;10963;50.934;4.668;2023-10-31T00:07:47;24.23;;;12.60;;
21601;SDS011;10963;50.934;4.668;2023-10-31T00:10:13;24.73;;;12.60;;
21601;SDS011;10963;50.934;4.668;2023-10-31T00:12:39;27.47;;;13.57;;
21601;SDS011;10963;50.934;4.668;2023-10-31T00:15:05;29.50;;;13.13;;
21601;SDS011;10963;50.934;4.668;2023-10-31T00:17:33;26.80;;;12.57;;
21601;SDS011;10963;50.934;4.668;2023-10-31T00:20:01;26.60;;;12.47;;
21601;SDS011;10963;50.934;4.668;2023-10-31T00:22:27;27.30;;;13.43;;
21601;SDS011;10963;50.934;4.668;2023-10-31T00:24:55;25.63;;;11.47;;
21601;SDS011;10963;50.934;4.668;2023-10-31T00:27:20;21.27;;;11.73;;
21601;SDS011;10963;50.934;4.668;2023-10-31T00:29:48;25.70;;;12.10;;
21601;SDS011;10963;50.934;4.668;2023-10-31T00:32:14;24.23;;;12.27;;
21601;SDS011;10963;50.934;4.668;2023-10-31T00:34:42;21.57;;;11.40;;
21601;SDS011;10963;50.934;4.668;2023-10-31T00:37:08;23.57;;;11.03;;
21601;SDS011;10963;50.934;4.668;2023-10-31T00:39:36;23.17;;;11.83;;
21601;SDS011;10963;50.934;4.668;2023-10-31T00:42:06;24.67;;;11.47;;
21601;SDS011;10963;50.934;4.668;2023-10-31T00:44:33;24.67;;;11.43;;
21601;SDS011;10963;50.934;4.668;2023-10-31T00:47:01;24.90;;;11.07;;
21601;SDS011;10963;50.934;4.668;2023-10-31T00:49:30;22.37;;;11.60;;
21601;SDS011;10963;50.934;4.668;2023-10-31T00:51:55;23.37;;;10.80;;
21601;SDS011;10963;50.934;4.668;2023-10-31T00:54:22;22.57;;;11.00;;
21601;SDS011;10963;50.934;4.668;2023-10-31T00:56:50;22.00;;;10.70;;
21601;SDS011;10963;50.934;4.668;2023-10-31T00:59:16;23.70;;;10.27;;
21601;SDS011;10963;50.934;4.668;2023-10-31T01:01:44;17.77;;;10.27;;
21601;SDS011;10963;50.934;4.668;2023-10-31T01:04:12;18.83;;;9.40;;
21601;SDS011;10963;50.934;4.668;2023-10-31T01:06:45;18.50;;;9.10;;
21601;SDS011;10963;50.934;4.668;2023-10-31T01:09:13;14.77;;;9.40;;
21601;SDS011;10963;50.934;4.668;2023-10-31T01:11:39;15.83;;;8.90;;
21601;SDS011;10963;50.934;4.668;2023-10-31T01:14:05;16.23;;;8.90;;
21601;SDS011;10963;50.934;4.668;2023-10-31T01:16:35;14.53;;;8.27;;
21601;SDS011;10963;50.934;4.668;2023-10-31T01:19:04;15.97;;;8.60;;
21601;SDS011;10963;50.934;4.668;2023-10-31T01:21:37;15.50;;;8.33;;
21601;SDS011;10963;50.934;4.668;2023-10-31T01:24:02;18.30;;;9.03;;
21601;SDS011;10963;50.934;4.668;2023-10-31T01:26:29;13.67;;;7.73;;
21601;SDS011;10963;50.934;4.668;2023-10-31T01:28:58;16.83;;;8.97;;
21601;SDS011;10963;50.934;4.668;2023-10-31T01:31:28;15.10;;;8.00;;
21601;SDS011;10963;50.934;4.668;2023-10-31T01:33:57;10.80;;;7.77;;
21601;SDS011;10963;50.934;4.668;2023-10-31T01:36:26;13.80;;;7.23;;
21601;SDS011;10963;50.934;4.668;2023-10-31T01:38:52;16.33;;;8.17;;
21601;SDS011;10963;50.934;4.668;2023-10-31T01:41:18;12.20;;;7.67;;
21601;SDS011;10963;50.934;4.668;2023-10-31T01:43:44;11.50;;;7.43;;
21601;SDS011;10963;50.934;4.668;2023-10-31T01:46:10;13.80;;;8.17;;
21601;SDS011;10963;50.934;4.668;2023-10-31T01:48:36;17.17;;;7.10;;
21601;SDS011;10963;50.934;4.668;2023-10-31T01:51:02;9.93;;;6.40;;
21601;SDS011;10963;50.934;4.668;2023-10-31T01:53:30;10.70;;;6.80;;
21601;SDS011;10963;50.934;4.668;2023-10-31T01:56:01;11.13;;;6.50;;
21601;SDS011;10963;50.934;4.668;2023-10-31T01:58:33;15.10;;;7.07;;
21601;SDS011;10963;50.934;4.668;2023-10-31T02:01:02;10.37;;;6.80;;
21601;SDS011;10963;50.934;4.668;2023-10-31T02:03:32;10.43;;;6.80;;
21601;SDS011;10963;50.934;4.668;2023-10-31T02:06:03;10.33;;;6.53;;
21601;SDS011;10963;50.934;4.668;2023-10-31T02:08:31;10.20;;;7.03;;
21601;SDS011;10963;50.934;4.668;2023-10-31T02:10:57;12.37;;;6.97;;
21601;SDS011;10963;50.934;4.668;2023-10-31T02:13:28;15.20;;;6.83;;
21601;SDS011;10963;50.934;4.668;2023-10-31T02:15:53;12.73;;;7.43;;
21601;SDS011;10963;50.934;4.668;2023-10-31T02:18:19;13.37;;;7.43;;
21601;SDS011;10963;50.934;4.668;2023-10-31T02:20:45;13.07;;;7.70;;
21601;SDS011;10963;50.934;4.668;2023-10-31T02:23:13;13.07;;;7.63;;
21601;SDS011;10963;50.934;4.668;2023-10-31T02:25:40;11.23;;;7.50;;
21601;SDS011;10963;50.934;4.668;2023-10-31T02:28:08;11.10;;;7.00;;
21601;SDS011;10963;50.934;4.668;2023-10-31T02:30:34;9.83;;;7.03;;
21601;SDS011;10963;50.934;4.668;2023-10-31T02:33:02;10.80;;;7.03;;
21601;SDS011;10963;50.934;4.668;2023-10-31T02:35:31;12.23;;;6.73;;
21601;SDS011;10963;50.934;4.668;2023-10-31T02:37:56;14.00;;;7.10;;
21601;SDS011;10963;50.934;4.668;2023-10-31T02:40:27;11.40;;;7.10;;
21601;SDS011;10963;50.934;4.668;2023-10-31T02:42:53;12.20;;;7.23;;
21601;SDS011;10963;50.934;4.668;2023-10-31T02:45:18;11.67;;;6.77;;
21601;SDS011;10963;50.934;4.668;2023-10-31T02:47:44;12.30;;;7.00;;
21601;SDS011;10963;50.934;4.668;2023-10-31T02:50:10;11.57;;;6.50;;
21601;SDS011;10963;50.934;4.668;2023-10-31T02:52:38;11.73;;;7.20;;
21601;SDS011;10963;50.934;4.668;2023-10-31T02:55:07;14.50;;;6.70;;
21601;SDS011;10963;50.934;4.668;2023-10-31T02:57:35;9.93;;;7.00;;
21601;SDS011;10963;50.934;4.668;2023-10-31T03:00:00;11.33;;;8.00;;
21601;SDS011;10963;50.934;4.668;2023-10-31T03:02:27;11.40;;;7.20;;
21601;SDS011;10963;50.934;4.668;2023-10-31T03:04:56;14.07;;;7.47;;
21601;SDS011;10963;50.934;4.668;2023-10-31T03:07:22;11.50;;;7.07;;
21601;SDS011;10963;50.934;4.668;2023-10-31T03:09:48;14.27;;;7.80;;
21601;SDS011;10963;50.934;4.668;2023-10-31T03:12:14;13.60;;;7.40;;
21601;SDS011;10963;50.934;4.668;2023-10-31T03:14:39;12.73;;;7.57;;
21601;SDS011;10963;50.934;4.668;2023-10-31T03:17:05;10.73;;;7.50;;
21601;SDS011;10963;50.934;4.668;2023-10-31T03:19:31;9.77;;;7.70;;
21601;SDS011;10963;50.934;4.668;2023-10-31T03:21:57;13.20;;;7.40;;
21601;SDS011;10963;50.934;4.668;2023-10-31T03:24:24;14.83;;;7.87;;
21601;SDS011;10963;50.934;4.668;2023-10-31T03:26:52;10.50;;;7.63;;
21601;SDS011;10963;50.934;4.668;2023-10-31T03:29:20;12.10;;;7.70;;
21601;SDS011;10963;50.934;4.668;2023-10-31T03:31:51;12.17;;;7.70;;
21601;SDS011;10963;50.934;4.668;2023-10-31T03:34:19;12.17;;;7.33;;
21601;SDS011;10963;50.934;4.668;2023-10-31T03:36:47;14.87;;;7.37;;
21601;SDS011;10963;50.934;4.668;2023-10-31T03:39:12;14.27;;;7.90;;
21601;SDS011;10963;50.934;4.668;2023-10-31T03:41:40;17.30;;;8.73;;
21601;SDS011;10963;50.934;4.668;2023-10-31T03:44:07;11.47;;;8.10;;
21601;SDS011;10963;50.934;4.668;2023-10-31T03:46:33;13.33;;;8.37;;
21601;SDS011;10963;50.934;4.668;2023-10-31T03:49:03;15.53;;;8.70;;
21601;SDS011;10963;50.934;4.668;2023-10-31T03:51:30;13.57;;;9.17;;
21601;SDS011;10963;50.934;4.668;2023-10-31T03:53:58;14.47;;;8.77;;
21601;SDS011;10963;50.934;4.668;2023-10-31T03:56:24;15.07;;;9.37;;
21601;SDS011;10963;50.934;4.668;2023-10-31T03:58:57;16.00;;;8.77;;
21601;SDS011;10963;50.934;4.668;2023-10-31T04:01:22;14.50;;;8.43;;
21601;SDS011;10963;50.934;4.668;2023-10-31T04:03:48;17.33;;;9.77;;
21601;SDS011;10963;50.934;4.668;2023-10-31T04:06:14;13.97;;;8.70;;
21601;SDS011;10963;50.934;4.668;2023-10-31T04:08:42;17.27;;;10.67;;
21601;SDS011;10963;50.934;4.668;2023-10-31T04:11:10;13.27;;;8.50;;
21601;SDS011;10963;50.934;4.668;2023-10-31T04:13:37;14.10;;;9.20;;
21601;SDS011;10963;50.934;4.668;2023-10-31T04:16:03;13.63;;;9.27;;
21601;SDS011;10963;50.934;4.668;2023-10-31T04:18:32;14.27;;;9.37;;
21601;SDS011;10963;50.934;4.668;2023-10-31T04:20:59;15.67;;;9.70;;
21601;SDS011;10963;50.934;4.668;2023-10-31T04:23:30;14.93;;;9.53;;
21601;SDS011;10963;50.934;4.668;2023-10-31T04:25:58;19.03;;;10.43;;
21601;SDS011;10963;50.934;4.668;2023-10-31T04:28:27;13.70;;;9.20;;
21601;SDS011;10963;50.934;4.668;2023-10-31T04:30:55;14.13;;;8.97;;
21601;SDS011;10963;50.934;4.668;2023-10-31T04:33:23;15.90;;;9.93;;
21601;SDS011;10963;50.934;4.668;2023-10-31T04:35:50;16.27;;;9.20;;
21601;SDS011;10963;50.934;4.668;2023-10-31T04:38:16;15.97;;;8.97;;
21601;SDS011;10963;50.934;4.668;2023-10-31T04:40:42;15.80;;;9.50;;
21601;SDS011;10963;50.934;4.668;2023-10-31T04:43:10;17.37;;;9.97;;
21601;SDS011;10963;50.934;4.668;2023-10-31T04:45:36;15.50;;;9.37;;
21601;SDS011;10963;50.934;4.668;2023-10-31T04:48:01;13.77;;;9.23;;
21601;SDS011;10963;50.934;4.668;2023-10-31T04:50:27;15.23;;;9.50;;
21601;SDS011;10963;50.934;4.668;2023-10-31T04:52:53;18.80;;;9.80;;
21601;SDS011;10963;50.934;4.668;2023-10-31T04:55:19;17.33;;;9.70;;
21601;SDS011;10963;50.934;4.668;2023-10-31T04:57:46;15.40;;;9.33;;
21601;SDS011;10963;50.934;4.668;2023-10-31T05:00:14;15.07;;;8.67;;
21601;SDS011;10963;50.934;4.668;2023-10-31T05:02:43;16.20;;;9.97;;
21601;SDS011;10963;50.934;4.668;2023-10-31T05:05:11;17.50;;;9.77;;
21601;SDS011;10963;50.934;4.668;2023-10-31T05:07:36;14.80;;;9.07;;
21601;SDS011;10963;50.934;4.668;2023-10-31T05:10:07;19.30;;;10.63;;
21601;SDS011;10963;50.934;4.668;2023-10-31T05:12:33;17.53;;;9.63;;
21601;SDS011;10963;50.934;4.668;2023-10-31T05:14:59;17.87;;;10.03;;
21601;SDS011;10963;50.934;4.668;2023-10-31T05:17:25;16.47;;;9.47;;
21601;SDS011;10963;50.934;4.668;2023-10-31T05:19:53;17.83;;;10.07;;
21601;SDS011;10963;50.934;4.668;2023-10-31T05:22:21;21.43;;;10.00;;
21601;SDS011;10963;50.934;4.668;2023-10-31T05:24:49;17.00;;;9.83;;
21601;SDS011;10963;50.934;4.668;2023-10-31T05:27:17;17.37;;;9.37;;
21601;SDS011;10963;50.934;4.668;2023-10-31T05:29:45;22.73;;;11.40;;
21601;SDS011;10963;50.934;4.668;2023-10-31T05:32:13;23.60;;;11.93;;
21601;SDS011;10963;50.934;4.668;2023-10-31T05:34:39;23.00;;;11.00;;
21601;SDS011;10963;50.934;4.668;2023-10-31T05:37:07;23.00;;;10.70;;
21601;SDS011;10963;50.934;4.668;2023-10-31T05:39:38;21.20;;;10.83;;
21601;SDS011;10963;50.934;4.668;2023-10-31T05:42:08;23.63;;;10.70;;
21601;SDS011;10963;50.934;4.668;2023-10-31T05:44:38;18.57;;;10.43;;
21601;SDS011;10963;50.934;4.668;2023-10-31T05:47:04;26.20;;;11.20;;
21601;SDS011;10963;50.934;4.668;2023-10-31T05:49:30;25.93;;;12.37;;
21601;SDS011;10963;50.934;4.668;2023-10-31T05:51:55;23.60;;;12.23;;
21601;SDS011;10963;50.934;4.668;2023-10-31T05:54:23;21.70;;;11.93;;
21601;SDS011;10963;50.934;4.668;2023-10-31T05:56:50;25.30;;;12.00;;
21601;SDS011;10963;50.934;4.668;2023-10-31T05:59:21;23.50;;;12.03;;
21601;SDS011;10963;50.934;4.668;2023-10-31T06:01:49;21.40;;;11.87;;
21601;SDS011;10963;50.934;4.668;2023-10-31T06:04:15;26.27;;;12.70;;
21601;SDS011;10963;50.934;4.668;2023-10-31T06:06:43;22.70;;;12.03;;
21601;SDS011;10963;50.934;4.668;2023-10-31T06:09:11;21.73;;;13.43;;
21601;SDS011;10963;50.934;4.668;2023-10-31T06:11:40;23.47;;;12.90;;
21601;SDS011;10963;50.934;4.668;2023-10-31T06:14:12;23.03;;;12.50;;
21601;SDS011;10963;50.934;4.668;2023-10-31T06:16:41;20.77;;;11.40;;
21601;SDS011;10963;50.934;4.668;2023-10-31T06:19:08;19.43;;;11.30;;
21601;SDS011;10963;50.934;4.668;2023-10-31T06:21:34;21.73;;;11.30;;
21601;SDS011;10963;50.934;4.668;2023-10-31T06:24:05;22.23;;;11.43;;
21601;SDS011;10963;50.934;4.668;2023-10-31T06:26:31;21.47;;;11.00;;
21601;SDS011;10963;50.934;4.668;2023-10-31T06:28:56;22.70;;;11.57;;
21601;SDS011;10963;50.934;4.668;2023-10-31T06:31:27;22.30;;;11.33;;
21601;SDS011;10963;50.934;4.668;2023-10-31T06:33:52;23.87;;;11.00;;
21601;SDS011;10963;50.934;4.668;2023-10-31T06:36:18;23.33;;;11.80;;
21601;SDS011;10963;50.934;4.668;2023-10-31T06:38:44;21.67;;;10.77;;
21601;SDS011;10963;50.934;4.668;2023-10-31T06:41:15;25.30;;;13.43;;
21601;SDS011;10963;50.934;4.668;2023-10-31T06:43:41;21.10;;;11.27;;
21601;SDS011;10963;50.934;4.668;2023-10-31T06:46:06;22.03;;;10.73;;
21601;SDS011;10963;50.934;4.668;2023-10-31T06:48:34;23.03;;;11.47;;
21601;SDS011;10963;50.934;4.668;2023-10-31T06:51:00;19.33;;;11.67;;
21601;SDS011;10963;50.934;4.668;2023-10-31T06:53:33;18.00;;;10.17;;
21601;SDS011;10963;50.934;4.668;2023-10-31T06:56:01;20.13;;;10.57;;
21601;SDS011;10963;50.934;4.668;2023-10-31T06:58:27;20.67;;;10.20;;
21601;SDS011;10963;50.934;4.668;2023-10-31T07:00:53;18.37;;;10.63;;
21601;SDS011;10963;50.934;4.668;2023-10-31T07:03:20;18.47;;;9.57;;
21601;SDS011;10963;50.934;4.668;2023-10-31T07:05:48;21.97;;;10.57;;
21601;SDS011;10963;50.934;4.668;2023-10-31T07:08:14;22.23;;;10.40;;
21601;SDS011;10963;50.934;4.668;2023-10-31T07:10:39;20.97;;;9.37;;
21601;SDS011;10963;50.934;4.668;2023-10-31T07:13:07;20.47;;;10.17;;
21601;SDS011;10963;50.934;4.668;2023-10-31T07:15:37;15.77;;;8.90;;
21601;SDS011;10963;50.934;4.668;2023-10-31T07:18:06;19.93;;;9.30;;
21601;SDS011;10963;50.934;4.668;2023-10-31T07:20:35;15.33;;;9.20;;
21601;SDS011;10963;50.934;4.668;2023-10-31T07:23:03;16.23;;;8.80;;
21601;SDS011;10963;50.934;4.668;2023-10-31T07:25:33;16.87;;;8.97;;
21601;SDS011;10963;50.934;4.668;2023-10-31T07:28:04;19.20;;;8.90;;
21601;SDS011;10963;50.934;4.668;2023-10-31T07:30:32;14.97;;;8.03;;
21601;SDS011;10963;50.934;4.668;2023-10-31T07:33:02;16.63;;;8.07;;
21601;SDS011;10963;50.934;4.668;2023-10-31T07:35:30;14.37;;;8.77;;
21601;SDS011;10963;50.934;4.668;2023-10-31T07:37:58;13.77;;;8.47;;
21601;SDS011;10963;50.934;4.668;2023-10-31T07:40:26;14.13;;;8.13;;
21601;SDS011;10963;50.934;4.668;2023-10-31T07:42:52;16.00;;;8.80;;
21601;SDS011;10963;50.934;4.668;2023-10-31T07:45:17;12.43;;;7.83;;
21601;SDS011;10963;50.934;4.668;2023-10-31T07:47:43;13.07;;;8.23;;
21601;SDS011;10963;50.934;4.668;2023-10-31T07:50:11;13.67;;;7.87;;
21601;SDS011;10963;50.934;4.668;2023-10-31T07:52:38;16.83;;;7.73;;
21601;SDS011;10963;50.934;4.668;2023-10-31T07:55:06;13.50;;;7.67;;
21601;SDS011;10963;50.934;4.668;2023-10-31T07:57:36;13.47;;;7.73;;
21601;SDS011;10963;50.934;4.668;2023-10-31T08:00:02;13.33;;;7.53;;
21601;SDS011;10963;50.934;4.668;2023-10-31T08:02:28;14.63;;;7.17;;
21601;SDS011;10963;50.934;4.668;2023-10-31T08:04:55;15.23;;;7.60;;
21601;SDS011;10963;50.934;4.668;2023-10-31T08:07:23;11.23;;;7.40;;
21601;SDS011;10963;50.934;4.668;2023-10-31T08:09:49;11.83;;;6.80;;
21601;SDS011;10963;50.934;4.668;2023-10-31T08:12:15;15.47;;;7.90;;
21601;SDS011;10963;50.934;4.668;2023-10-31T08:14:45;11.73;;;7.07;;
21601;SDS011;10963;50.934;4.668;2023-10-31T08:17:13;10.27;;;6.43;;
21601;SDS011;10963;50.934;4.668;2023-10-31T08:19:41;9.30;;;6.43;;
21601;SDS011;10963;50.934;4.668;2023-10-31T08:22:07;11.67;;;6.77;;
21601;SDS011;10963;50.934;4.668;2023-10-31T08:24:33;12.43;;;7.03;;
21601;SDS011;10963;50.934;4.668;2023-10-31T08:27:02;7.53;;;5.60;;
21601;SDS011;10963;50.934;4.668;2023-10-31T08:29:28;9.80;;;6.10;;
21601;SDS011;10963;50.934;4.668;2023-10-31T08:31:53;8.20;;;6.10;;
21601;SDS011;10963;50.934;4.668;2023-10-31T08:34:19;9.17;;;5.80;;
21601;SDS011;10963;50.934;4.668;2023-10-31T08:36:45;6.50;;;5.07;;
21601;SDS011;10963;50.934;4.668;2023-10-31T08:39:10;11.93;;;5.40;;
21601;SDS011;10963;50.934;4.668;2023-10-31T08:41:36;11.53;;;5.93;;
21601;SDS011;10963;50.934;4.668;2023-10-31T08:44:13;10.70;;;5.63;;
21601;SDS011;10963;50.934;4.668;2023-10-31T08:46:39;6.67;;;5.37;;
21601;SDS011;10963;50.934;4.668;2023-10-31T08:49:09;8.60;;;5.00;;
21601;SDS011;10963;50.934;4.668;2023-10-31T08:51:38;7.50;;;5.17;;
21601;SDS011;10963;50.934;4.668;2023-10-31T08:54:03;15.07;;;5.50;;
21601;SDS011;10963;50.934;4.668;2023-10-31T08:56:29;8.60;;;5.17;;
21601;SDS011;10963;50.934;4.668;2023-10-31T08:58:55;6.93;;;4.90;;
21601;SDS011;10963;50.934;4.668;2023-10-31T09:01:23;7.80;;;5.10;;
21601;SDS011;10963;50.934;4.668;2023-10-31T09:03:51;7.57;;;5.10;;
21601;SDS011;10963;50.934;4.668;2023-10-31T09:06:19;10.10;;;5.00;;
21601;SDS011;10963;50.934;4.668;2023-10-31T09:08:47;5.80;;;4.70;;
21601;SDS011;10963;50.934;4.668;2023-10-31T09:11:18;5.97;;;4.47;;
21601;SDS011;10963;50.934;4.668;2023-10-31T09:13:46;7.03;;;4.43;;
21601;SDS011;10963;50.934;4.668;2023-10-31T09:16:11;6.50;;;4.87;;
21601;SDS011;10963;50.934;4.668;2023-10-31T09:18:38;10.30;;;4.87;;
21601;SDS011;10963;50.934;4.668;2023-10-31T09:21:04;7.77;;;4.90;;
21601;SDS011;10963;50.934;4.668;2023-10-31T09:23:30;8.37;;;5.03;;
21601;SDS011;10963;50.934;4.668;2023-10-31T09:25:55;9.67;;;5.10;;
21601;SDS011;10963;50.934;4.668;2023-10-31T09:28:24;8.37;;;4.83;;
21601;SDS011;10963;50.934;4.668;2023-10-31T09:30:52;7.93;;;4.83;;
21601;SDS011;10963;50.934;4.668;2023-10-31T09:33:17;8.07;;;4.47;;
21601;SDS011;10963;50.934;4.668;2023-10-31T09:35:45;6.60;;;4.30;;
21601;SDS011;10963;50.934;4.668;2023-10-31T09:38:11;8.80;;;5.00;;
21601;SDS011;10963;50.934;4.668;2023-10-31T09:40:38;8.67;;;4.63;;
21601;SDS011;10963;50.934;4.668;2023-10-31T09:43:06;11.10;;;5.20;;
21601;SDS011;10963;50.934;4.668;2023-10-31T09:45:37;9.77;;;5.10;;
21601;SDS011;10963;50.934;4.668;2023-10-31T09:48:06;9.20;;;3.90;;
21601;SDS011;10963;50.934;4.668;2023-10-31T09:50:32;5.70;;;3.80;;
21601;SDS011;10963;50.934;4.668;2023-10-31T09:52:59;8.93;;;3.97;;
21601;SDS011;10963;50.934;4.668;2023-10-31T09:55:26;4.53;;;3.43;;
21601;SDS011;10963;50.934;4.668;2023-10-31T09:57:57;4.67;;;3.40;;
21601;SDS011;10963;50.934;4.668;2023-10-31T10:00:25;4.50;;;3.50;;
21601;SDS011;10963;50.934;4.668;2023-10-31T10:02:55;9.70;;;3.60;;
21601;SDS011;10963;50.934;4.668;2023-10-31T10:05:23;5.10;;;3.53;;
21601;SDS011;10963;50.934;4.668;2023-10-31T10:07:50;9.00;;;3.83;;
21601;SDS011;10963;50.934;4.668;2023-10-31T10:10:15;8.33;;;4.10;;
21601;SDS011;10963;50.934;4.668;2023-10-31T10:12:44;6.07;;;3.53;;
21601;SDS011;10963;50.934;4.668;2023-10-31T10:15:11;6.43;;;3.87;;
21601;SDS011;10963;50.934;4.668;2023-10-31T10:17:39;5.93;;;4.43;;
21601;SDS011;10963;50.934;4.668;2023-10-31T10:20:14;8.17;;;3.87;;
21601;SDS011;10963;50.934;4.668;2023-10-31T10:22:40;5.30;;;3.70;;
21601;SDS011;10963;50.934;4.668;2023-10-31T10:25:08;6.13;;;3.87;;
21601;SDS011;10963;50.934;4.668;2023-10-31T10:27:39;7.53;;;3.53;;
21601;SDS011;10963;50.934;4.668;2023-10-31T10:30:06;5.30;;;3.43;;
21601;SDS011;10963;50.934;4.668;2023-10-31T10:32:36;6.77;;;3.77;;
21601;SDS011;10963;50.934;4.668;2023-10-31T10:35:04;7.00;;;3.83;;
21601;SDS011;10963;50.934;4.668;2023-10-31T10:37:31;7.73;;;3.60;;
21601;SDS011;10963;50.934;4.668;2023-10-31T10:39:57;5.17;;;3.50;;
21601;SDS011;10963;50.934;4.668;2023-10-31T10:42:31;7.50;;;3.30;;
21601;SDS011;10963;50.934;4.668;2023-10-31T10:45:03;8.03;;;3.00;;
21601;SDS011;10963;50.934;4.668;2023-10-31T10:47:33;9.77;;;3.70;;
21601;SDS011;10963;50.934;4.668;2023-10-31T10:50:04;8.10;;;3.17;;
21601;SDS011;10963;50.934;4.668;2023-10-31T10:52:38;6.40;;;3.77;;
21601;SDS011;10963;50.934;4.668;2023-10-31T10:55:12;7.57;;;3.23;;
21601;SDS011;10963;50.934;4.668;2023-10-31T10:58:00;12.03;;;3.53;;
21601;SDS011;10963;50.934;4.668;2023-10-31T11:00:30;5.87;;;3.10;;
21601;SDS011;10963;50.934;4.668;2023-10-31T11:03:01;7.40;;;3.63;;
21601;SDS011;10963;50.934;4.668;2023-10-31T11:05:32;10.07;;;3.57;;
21601;SDS011;10963;50.934;4.668;2023-10-31T11:08:01;8.50;;;2.93;;
21601;SDS011;10963;50.934;4.668;2023-10-31T11:10:31;7.33;;;3.00;;
21601;SDS011;10963;50.934;4.668;2023-10-31T11:12:59;9.50;;;3.80;;
21601;SDS011;10963;50.934;4.668;2023-10-31T11:15:25;7.00;;;2.93;;
21601;SDS011;10963;50.934;4.668;2023-10-31T11:17:51;7.33;;;3.07;;
21601;SDS011;10963;50.934;4.668;2023-10-31T11:20:22;10.67;;;3.17;;
21601;SDS011;10963;50.934;4.668;2023-10-31T11:22:54;10.73;;;4.47;;
21601;SDS011;10963;50.934;4.668;2023-10-31T11:25:23;5.33;;;3.20;;
21601;SDS011;10963;50.934;4.668;2023-10-31T11:27:56;8.23;;;3.37;;
21601;SDS011;10963;50.934;4.668;2023-10-31T11:32:55;6.83;;;3.10;;
21601;SDS011;10963;50.934;4.668;2023-10-31T11:35:26;8.53;;;3.30;;
21601;SDS011;10963;50.934;4.668;2023-10-31T11:38:05;8.13;;;3.20;;
21601;SDS011;10963;50.934;4.668;2023-10-31T11:40:32;5.83;;;3.70;;
21601;SDS011;10963;50.934;4.668;2023-10-31T11:43:02;9.27;;;4.17;;
21601;SDS011;10963;50.934;4.668;2023-10-31T11:45:37;6.70;;;3.90;;
21601;SDS011;10963;50.934;4.668;2023-10-31T11:48:12;7.37;;;3.37;;
21601;SDS011;10963;50.934;4.668;2023-10-31T11:50:39;6.27;;;3.70;;
21601;SDS011;10963;50.934;4.668;2023-10-31T11:55:42;5.83;;;3.70;;
21601;SDS011;10963;50.934;4.668;2023-10-31T11:58:22;10.43;;;4.73;;
21601;SDS011;10963;50.934;4.668;2023-10-31T12:00:51;11.20;;;4.87;;
21601;SDS011;10963;50.934;4.668;2023-10-31T12:03:35;11.93;;;4.87;;
21601;SDS011;10963;50.934;4.668;2023-10-31T12:06:13;8.90;;;4.70;;
21601;SDS011;10963;50.934;4.668;2023-10-31T12:08:40;10.53;;;5.20;;
21601;SDS011;10963;50.934;4.668;2023-10-31T12:11:21;7.93;;;4.60;;
21601;SDS011;10963;50.934;4.668;2023-10-31T12:16:32;10.17;;;5.33;;
21601;SDS011;10963;50.934;4.668;2023-10-31T12:19:02;10.17;;;4.70;;
21601;SDS011;10963;50.934;4.668;2023-10-31T12:24:04;10.47;;;6.30;;
21601;SDS011;10963;50.934;4.668;2023-10-31T12:26:34;12.77;;;5.70;;
21601;SDS011;10963;50.934;4.668;2023-10-31T12:29:13;8.20;;;4.47;;
21601;SDS011;10963;50.934;4.668;2023-10-31T12:31:48;11.87;;;9.73;;
21601;SDS011;10963;50.934;4.668;2023-10-31T12:34:18;12.23;;;6.73;;
21601;SDS011;10963;50.934;4.668;2023-10-31T12:36:48;11.13;;;5.33;;
21601;SDS011;10963;50.934;4.668;2023-10-31T12:39:16;11.37;;;6.30;;
21601;SDS011;10963;50.934;4.668;2023-10-31T12:41:43;12.67;;;6.33;;
21601;SDS011;10963;50.934;4.668;2023-10-31T12:44:09;8.20;;;5.40;;
21601;SDS011;10963;50.934;4.668;2023-10-31T12:46:39;10.03;;;4.83;;
21601;SDS011;10963;50.934;4.668;2023-10-31T12:49:16;8.27;;;6.13;;
21601;SDS011;10963;50.934;4.668;2023-10-31T12:51:57;5.83;;;4.60;;
21601;SDS011;10963;50.934;4.668;2023-10-31T12:54:32;8.43;;;4.30;;
21601;SDS011;10963;50.934;4.668;2023-10-31T12:57:06;5.93;;;4.03;;
21601;SDS011;10963;50.934;4.668;2023-10-31T12:59:35;7.23;;;4.07;;
21601;SDS011;10963;50.934;4.668;2023-10-31T13:02:08;7.47;;;4.17;;
21601;SDS011;10963;50.934;4.668;2023-10-31T13:04:43;5.90;;;4.47;;
21601;SDS011;10963;50.934;4.668;2023-10-31T13:07:11;9.70;;;4.00;;
21601;SDS011;10963;50.934;4.668;2023-10-31T13:09:37;5.70;;;3.50;;
21601;SDS011;10963;50.934;4.668;2023-10-31T13:12:07;7.53;;;3.93;;
21601;SDS011;10963;50.934;4.668;2023-10-31T13:14:36;7.30;;;3.80;;
21601;SDS011;10963;50.934;4.668;2023-10-31T13:17:05;8.43;;;4.23;;
21601;SDS011;10963;50.934;4.668;2023-10-31T13:19:33;4.73;;;3.43;;
21601;SDS011;10963;50.934;4.668;2023-10-31T13:22:01;7.17;;;3.57;;
21601;SDS011;10963;50.934;4.668;2023-10-31T13:24:29;8.90;;;3.70;;
21601;SDS011;10963;50.934;4.668;2023-10-31T13:26:56;6.83;;;3.40;;
21601;SDS011;10963;50.934;4.668;2023-10-31T13:29:22;5.03;;;3.33;;
21601;SDS011;10963;50.934;4.668;2023-10-31T13:31:50;6.43;;;3.23;;
21601;SDS011;10963;50.934;4.668;2023-10-31T13:34:16;3.33;;;3.00;;
21601;SDS011;10963;50.934;4.668;2023-10-31T13:36:41;5.00;;;3.10;;
21601;SDS011;10963;50.934;4.668;2023-10-31T13:39:09;3.43;;;2.73;;
21601;SDS011;10963;50.934;4.668;2023-10-31T13:41:35;8.53;;;3.73;;
21601;SDS011;10963;50.934;4.668;2023-10-31T13:44:01;4.03;;;3.10;;
21601;SDS011;10963;50.934;4.668;2023-10-31T13:46:30;5.50;;;3.20;;
21601;SDS011;10963;50.934;4.668;2023-10-31T13:48:58;6.67;;;3.23;;
21601;SDS011;10963;50.934;4.668;2023-10-31T13:51:26;4.43;;;2.47;;
21601;SDS011;10963;50.934;4.668;2023-10-31T13:53:52;4.03;;;2.50;;
21601;SDS011;10963;50.934;4.668;2023-10-31T13:56:20;4.20;;;2.47;;
21601;SDS011;10963;50.934;4.668;2023-10-31T13:58:46;3.73;;;2.23;;
21601;SDS011;10963;50.934;4.668;2023-10-31T14:01:14;95.93;;;39.27;;
21601;SDS011;10963;50.934;4.668;2023-10-31T14:03:40;29.70;;;17.30;;
21601;SDS011;10963;50.934;4.668;2023-10-31T14:06:08;5.60;;;3.83;;
21601;SDS011;10963;50.934;4.668;2023-10-31T14:08:34;5.10;;;3.53;;
21601;SDS011;10963;50.934;4.668;2023-10-31T14:11:03;4.77;;;3.37;;
21601;SDS011;10963;50.934;4.668;2023-10-31T14:13:31;5.73;;;4.20;;
21601;SDS011;10963;50.934;4.668;2023-10-31T14:16:00;6.83;;;6.13;;
21601;SDS011;10963;50.934;4.668;2023-10-31T14:18:26;6.13;;;4.80;;
21601;SDS011;10963;50.934;4.668;2023-10-31T14:20:51;6.60;;;4.33;;
21601;SDS011;10963;50.934;4.668;2023-10-31T14:23:17;9.37;;;4.70;;
21601;SDS011;10963;50.934;4.668;2023-10-31T14:25:45;7.43;;;5.10;;
21601;SDS011;10963;50.934;4.668;2023-10-31T14:28:11;9.93;;;5.37;;
21601;SDS011;10963;50.934;4.668;2023-10-31T14:30:37;9.43;;;5.10;;
21601;SDS011;10963;50.934;4.668;2023-10-31T14:33:03;8.57;;;5.67;;
21601;SDS011;10963;50.934;4.668;2023-10-31T14:35:28;7.40;;;5.20;;
21601;SDS011;10963;50.934;4.668;2023-10-31T14:37:54;9.67;;;5.77;;
21601;SDS011;10963;50.934;4.668;2023-10-31T14:40:20;6.63;;;4.60;;
21601;SDS011;10963;50.934;4.668;2023-10-31T14:42:49;7.80;;;5.30;;
21601;SDS011;10963;50.934;4.668;2023-10-31T14:45:14;8.47;;;4.37;;
21601;SDS011;10963;50.934;4.668;2023-10-31T14:47:42;7.40;;;4.47;;
21601;SDS011;10963;50.934;4.668;2023-10-31T14:50:09;7.53;;;5.07;;